sensor_id;sensor_type;location;lat;lon;timestamp;temperature;humidity
13205;DHT22;6667;52.634;9.226;2022-07-10T10:43:18;22.00;99.90
13205;DHT22;6667;52.634;9.226;2022-07-10T10:45:45;21.70;99.90
13205;DHT22;6667;52.634;9.226;2022-07-10T10:48:13;21.50;99.90
13205;DHT22;6667;52.634;9.226;2022-07-10T10:50:41;21.50;99.90
13205;DHT22;6667;52.634;9.226;2022-07-10T10:53:19;21.60;99.90
13205;DHT22;6667;52.634;9.226;2022-07-10T10:56:22;21.10;99.90
13205;DHT22;6667;52.634;9.226;2022-07-10T10:58:51;21.40;99.90
13205;DHT22;6667;52.634;9.226;2022-07-10T11:01:29;21.30;99.90
13205;DHT22;6667;52.634;9.226;2022-07-10T11:04:13;21.30;99.90
13205;DHT22;6667;52.634;9.226;2022-07-10T11:06:40;20.90;99.90
13205;DHT22;6667;52.634;9.226;2022-07-10T11:09:22;21.00;99.90
13205;DHT22;6667;52.634;9.226;2022-07-10T11:11:58;21.40;99.90
13205;DHT22;6667;52.634;9.226;2022-07-10T11:14:26;22.30;99.90
13205;DHT22;6667;52.634;9.226;2022-07-10T11:16:54;22.40;99.90
13205;DHT22;6667;52.634;9.226;2022-07-10T11:19:22;22.10;99.90
13205;DHT22;6667;52.634;9.226;2022-07-10T11:21:56;22.30;99.90
13205;DHT22;6667;52.634;9.226;2022-07-10T11:24:38;22.00;99.90
13205;DHT22;6667;52.634;9.226;2022-07-10T11:27:15;21.90;99.90
13205;DHT22;6667;52.634;9.226;2022-07-10T11:29:56;21.60;99.90
13205;DHT22;6667;52.634;9.226;2022-07-10T11:32:23;21.60;99.90
13205;DHT22;6667;52.634;9.226;2022-07-10T11:34:50;21.50;99.90
13205;DHT22;6667;52.634;9.226;2022-07-10T11:37:17;21.30;99.90
13205;DHT22;6667;52.634;9.226;2022-07-10T11:39:43;21.10;99.90
13205;DHT22;6667;52.634;9.226;2022-07-10T11:42:10;21.20;99.90
13205;DHT22;6667;52.634;9.226;2022-07-10T11:44:37;21.50;99.90
13205;DHT22;6667;52.634;9.226;2022-07-10T11:47:05;21.60;99.90
13205;DHT22;6667;52.634;9.226;2022-07-10T11:49:33;22.20;99.90
13205;DHT22;6667;52.634;9.226;2022-07-10T11:52:02;22.30;99.90
13205;DHT22;6667;52.634;9.226;2022-07-10T11:54:29;22.10;99.90
13205;DHT22;6667;52.634;9.226;2022-07-10T11:57:04;22.00;99.90
13205;DHT22;6667;52.634;9.226;2022-07-10T11:59:32;21.90;99.90
13205;DHT22;6667;52.634;9.226;2022-07-10T12:01:58;21.90;99.90
13205;DHT22;6667;52.634;9.226;2022-07-10T12:04:30;22.10;99.90
13205;DHT22;6667;52.634;9.226;2022-07-10T12:06:57;22.20;99.90
13205;DHT22;6667;52.634;9.226;2022-07-10T12:09:24;22.40;99.90
13205;DHT22;6667;52.634;9.226;2022-07-10T12:11:59;22.50;99.90
13205;DHT22;6667;52.634;9.226;2022-07-10T12:14:26;22.20;99.90
13205;DHT22;6667;52.634;9.226;2022-07-10T12:16:53;22.20;99.90
13205;DHT22;6667;52.634;9.226;2022-07-10T12:19:23;21.90;99.90
13205;DHT22;6667;52.634;9.226;2022-07-10T12:21:52;21.70;99.90
13205;DHT22;6667;52.634;9.226;2022-07-10T12:24:19;21.70;99.90
13205;DHT22;6667;52.634;9.226;2022-07-10T12:26:46;21.60;99.90
13205;DHT22;6667;52.634;9.226;2022-07-10T12:29:19;21.30;99.90
13205;DHT22;6667;52.634;9.226;2022-07-10T12:31:47;21.20;99.90
13205;DHT22;6667;52.634;9.226;2022-07-10T12:34:14;20.90;99.90
13205;DHT22;6667;52.634;9.226;2022-07-10T12:36:46;20.90;99.90
13205;DHT22;6667;52.634;9.226;2022-07-10T12:39:16;21.00;99.90
13205;DHT22;6667;52.634;9.226;2022-07-10T12:41:57;20.40;99.90
13205;DHT22;6667;52.634;9.226;2022-07-10T12:44:34;20.90;99.90
13205;DHT22;6667;52.634;9.226;2022-07-10T12:47:02;21.20;99.90
13205;DHT22;6667;52.634;9.226;2022-07-10T12:49:29;21.40;99.90
13205;DHT22;6667;52.634;9.226;2022-07-10T12:51:56;21.50;99.90
13205;DHT22;6667;52.634;9.226;2022-07-10T12:54:34;21.80;99.90
13205;DHT22;6667;52.634;9.226;2022-07-10T12:57:01;21.80;99.90
13205;DHT22;6667;52.634;9.226;2022-07-10T12:59:28;21.90;99.90
13205;DHT22;6667;52.634;9.226;2022-07-10T13:01:55;21.80;99.90
13205;DHT22;6667;52.634;9.226;2022-07-10T13:04:23;21.90;99.90
13205;DHT22;6667;52.634;9.226;2022-07-10T13:06:50;21.40;99.90
13205;DHT22;6667;52.634;9.226;2022-07-10T13:09:22;21.20;99.90
13205;DHT22;6667;52.634;9.226;2022-07-10T13:11:51;20.90;99.90
13205;DHT22;6667;52.634;9.226;2022-07-10T13:14:18;20.80;99.90
13205;DHT22;6667;52.634;9.226;2022-07-10T13:16:45;20.70;99.90
13205;DHT22;6667;52.634;9.226;2022-07-10T13:19:11;20.60;99.90
13205;DHT22;6667;52.634;9.226;2022-07-10T13:21:38;20.80;99.90
13205;DHT22;6667;52.634;9.226;2022-07-10T13:24:05;20.30;99.90
13205;DHT22;6667;52.634;9.226;2022-07-10T13:26:32;20.20;99.90
13205;DHT22;6667;52.634;9.226;2022-07-10T13:29:00;20.50;99.90
13205;DHT22;6667;52.634;9.226;2022-07-10T13:31:27;20.40;99.90
13205;DHT22;6667;52.634;9.226;2022-07-10T13:33:54;20.10;99.90
13205;DHT22;6667;52.634;9.226;2022-07-10T13:36:21;20.30;99.90
13205;DHT22;6667;52.634;9.226;2022-07-10T13:38:48;20.20;99.90
13205;DHT22;6667;52.634;9.226;2022-07-10T13:41:15;20.20;99.90
13205;DHT22;6667;52.634;9.226;2022-07-10T13:43:42;20.00;99.90
13205;DHT22;6667;52.634;9.226;2022-07-10T13:46:10;20.00;99.90
13205;DHT22;6667;52.634;9.226;2022-07-10T13:48:37;20.20;99.90
13205;DHT22;6667;52.634;9.226;2022-07-10T13:51:04;20.50;99.90
13205;DHT22;6667;52.634;9.226;2022-07-10T13:53:30;20.50;99.90
13205;DHT22;6667;52.634;9.226;2022-07-10T13:55:57;20.70;99.90
13205;DHT22;6667;52.634;9.226;2022-07-10T13:58:24;20.90;99.90
13205;DHT22;6667;52.634;9.226;2022-07-10T14:00:51;20.40;99.90
13205;DHT22;6667;52.634;9.226;2022-07-10T14:03:19;20.10;99.90
13205;DHT22;6667;52.634;9.226;2022-07-10T14:05:45;19.80;99.90
13205;DHT22;6667;52.634;9.226;2022-07-10T14:08:12;19.90;99.90
13205;DHT22;6667;52.634;9.226;2022-07-10T14:10:39;20.50;99.90
13205;DHT22;6667;52.634;9.226;2022-07-10T14:13:06;20.50;99.90
13205;DHT22;6667;52.634;9.226;2022-07-10T14:15:34;20.70;99.90
13205;DHT22;6667;52.634;9.226;2022-07-10T14:18:00;20.70;99.90
13205;DHT22;6667;52.634;9.226;2022-07-10T14:20:29;20.60;99.90
13205;DHT22;6667;52.634;9.226;2022-07-10T14:23:16;21.00;99.90
13205;DHT22;6667;52.634;9.226;2022-07-10T14:25:43;20.70;99.90
13205;DHT22;6667;52.634;9.226;2022-07-10T14:28:10;20.20;99.90
13205;DHT22;6667;52.634;9.226;2022-07-10T14:30:38;20.00;99.90
13205;DHT22;6667;52.634;9.226;2022-07-10T14:33:06;19.50;99.90
13205;DHT22;6667;52.634;9.226;2022-07-10T14:35:34;19.50;99.90
13205;DHT22;6667;52.634;9.226;2022-07-10T14:38:00;19.30;99.90
13205;DHT22;6667;52.634;9.226;2022-07-10T14:40:27;19.20;99.90
13205;DHT22;6667;52.634;9.226;2022-07-10T14:42:53;19.20;99.90
13205;DHT22;6667;52.634;9.226;2022-07-10T14:45:22;19.30;99.90
13205;DHT22;6667;52.634;9.226;2022-07-10T14:47:49;19.20;99.90
13205;DHT22;6667;52.634;9.226;2022-07-10T14:50:16;19.30;1.00
13205;DHT22;6667;52.634;9.226;2022-07-10T14:52:44;19.60;99.90
13205;DHT22;6667;52.634;9.226;2022-07-10T14:55:10;19.40;99.90
13205;DHT22;6667;52.634;9.226;2022-07-10T14:57:37;19.60;99.90
13205;DHT22;6667;52.634;9.226;2022-07-10T15:00:05;19.60;99.90
13205;DHT22;6667;52.634;9.226;2022-07-10T15:02:32;19.50;99.90
13205;DHT22;6667;52.634;9.226;2022-07-10T15:04:58;19.70;99.90
13205;DHT22;6667;52.634;9.226;2022-07-10T15:07:27;19.60;99.90
13205;DHT22;6667;52.634;9.226;2022-07-10T15:09:55;19.80;99.90
13205;DHT22;6667;52.634;9.226;2022-07-10T15:12:21;19.70;99.90
13205;DHT22;6667;52.634;9.226;2022-07-10T15:14:48;19.40;99.90
13205;DHT22;6667;52.634;9.226;2022-07-10T15:17:15;19.60;99.90
13205;DHT22;6667;52.634;9.226;2022-07-10T15:19:41;19.20;99.90
13205;DHT22;6667;52.634;9.226;2022-07-10T15:22:08;19.20;99.90
13205;DHT22;6667;52.634;9.226;2022-07-10T15:24:34;19.40;99.90
13205;DHT22;6667;52.634;9.226;2022-07-10T15:27:03;18.90;99.90
13205;DHT22;6667;52.634;9.226;2022-07-10T15:29:29;19.00;99.90
13205;DHT22;6667;52.634;9.226;2022-07-10T15:31:56;19.10;99.90
13205;DHT22;6667;52.634;9.226;2022-07-10T15:34:23;19.40;99.90
13205;DHT22;6667;52.634;9.226;2022-07-10T15:36:49;19.50;99.90
13205;DHT22;6667;52.634;9.226;2022-07-10T15:39:16;19.40;99.90
13205;DHT22;6667;52.634;9.226;2022-07-10T15:41:42;19.10;99.90
13205;DHT22;6667;52.634;9.226;2022-07-10T15:44:12;19.20;99.90
13205;DHT22;6667;52.634;9.226;2022-07-10T15:46:39;19.30;99.90
13205;DHT22;6667;52.634;9.226;2022-07-10T15:49:06;19.30;99.90
13205;DHT22;6667;52.634;9.226;2022-07-10T15:51:33;19.10;99.90
13205;DHT22;6667;52.634;9.226;2022-07-10T15:53:59;19.20;99.90
13205;DHT22;6667;52.634;9.226;2022-07-10T15:56:26;19.40;99.90
13205;DHT22;6667;52.634;9.226;2022-07-10T15:58:52;19.50;99.90
13205;DHT22;6667;52.634;9.226;2022-07-10T16:01:20;19.60;99.90
13205;DHT22;6667;52.634;9.226;2022-07-10T16:03:47;19.60;99.90
13205;DHT22;6667;52.634;9.226;2022-07-10T16:06:14;19.60;99.90
13205;DHT22;6667;52.634;9.226;2022-07-10T16:08:41;19.70;99.90
13205;DHT22;6667;52.634;9.226;2022-07-10T16:11:07;19.60;99.90
13205;DHT22;6667;52.634;9.226;2022-07-10T16:13:34;19.40;99.90
13205;DHT22;6667;52.634;9.226;2022-07-10T16:16:01;19.40;99.90
13205;DHT22;6667;52.634;9.226;2022-07-10T16:18:28;19.20;99.90
13205;DHT22;6667;52.634;9.226;2022-07-10T16:20:55;19.40;99.90
13205;DHT22;6667;52.634;9.226;2022-07-10T16:23:22;19.40;99.90
13205;DHT22;6667;52.634;9.226;2022-07-10T16:25:48;19.50;99.90
13205;DHT22;6667;52.634;9.226;2022-07-10T16:28:26;19.40;99.90
13205;DHT22;6667;52.634;9.226;2022-07-10T16:30:53;19.40;99.90
13205;DHT22;6667;52.634;9.226;2022-07-10T16:33:19;19.00;99.90
13205;DHT22;6667;52.634;9.226;2022-07-10T16:35:47;18.90;99.90
13205;DHT22;6667;52.634;9.226;2022-07-10T16:38:14;18.90;99.90
13205;DHT22;6667;52.634;9.226;2022-07-10T16:40:43;19.10;99.90
13205;DHT22;6667;52.634;9.226;2022-07-10T16:43:09;19.10;99.90
13205;DHT22;6667;52.634;9.226;2022-07-10T16:45:36;19.10;99.90
13205;DHT22;6667;52.634;9.226;2022-07-10T16:48:03;19.20;99.90
13205;DHT22;6667;52.634;9.226;2022-07-10T16:50:29;19.10;99.90
13205;DHT22;6667;52.634;9.226;2022-07-10T16:52:58;19.00;99.90
13205;DHT22;6667;52.634;9.226;2022-07-10T16:55:24;18.90;99.90
13205;DHT22;6667;52.634;9.226;2022-07-10T16:57:51;18.70;99.90
13205;DHT22;6667;52.634;9.226;2022-07-10T17:00:18;19.00;99.90
13205;DHT22;6667;52.634;9.226;2022-07-10T17:02:44;19.00;99.90
13205;DHT22;6667;52.634;9.226;2022-07-10T17:05:11;19.00;99.90
13205;DHT22;6667;52.634;9.226;2022-07-10T17:07:38;19.00;99.90
13205;DHT22;6667;52.634;9.226;2022-07-10T17:10:08;18.90;99.90
13205;DHT22;6667;52.634;9.226;2022-07-10T17:12:35;19.00;99.90
13205;DHT22;6667;52.634;9.226;2022-07-10T17:15:03;18.90;99.90
13205;DHT22;6667;52.634;9.226;2022-07-10T17:17:30;18.70;99.90
13205;DHT22;6667;52.634;9.226;2022-07-10T17:19:57;18.80;99.90
13205;DHT22;6667;52.634;9.226;2022-07-10T17:22:24;18.90;99.90
13205;DHT22;6667;52.634;9.226;2022-07-10T17:24:51;19.00;99.90
13205;DHT22;6667;52.634;9.226;2022-07-10T17:27:20;19.20;99.90
13205;DHT22;6667;52.634;9.226;2022-07-10T17:29:46;19.00;99.90
13205;DHT22;6667;52.634;9.226;2022-07-10T17:32:13;18.70;99.90
13205;DHT22;6667;52.634;9.226;2022-07-10T17:34:40;18.60;99.90
13205;DHT22;6667;52.634;9.226;2022-07-10T17:37:07;18.70;99.90
13205;DHT22;6667;52.634;9.226;2022-07-10T17:39:34;18.90;99.90
13205;DHT22;6667;52.634;9.226;2022-07-10T17:42:00;18.90;99.90
13205;DHT22;6667;52.634;9.226;2022-07-10T17:44:28;18.80;99.90
13205;DHT22;6667;52.634;9.226;2022-07-10T17:46:55;18.70;99.90
13205;DHT22;6667;52.634;9.226;2022-07-10T17:49:22;18.60;99.90
13205;DHT22;6667;52.634;9.226;2022-07-10T17:51:51;18.80;99.90
13205;DHT22;6667;52.634;9.226;2022-07-10T17:54:17;19.00;99.90
13205;DHT22;6667;52.634;9.226;2022-07-10T17:56:44;19.00;99.90
13205;DHT22;6667;52.634;9.226;2022-07-10T17:59:11;18.90;99.90
13205;DHT22;6667;52.634;9.226;2022-07-10T18:01:39;18.90;99.90
13205;DHT22;6667;52.634;9.226;2022-07-10T18:04:05;18.60;99.90
13205;DHT22;6667;52.634;9.226;2022-07-10T18:06:32;18.50;99.90
13205;DHT22;6667;52.634;9.226;2022-07-10T18:08:59;18.40;99.90
13205;DHT22;6667;52.634;9.226;2022-07-10T18:11:26;18.40;99.90
13205;DHT22;6667;52.634;9.226;2022-07-10T18:13:53;18.40;99.90
13205;DHT22;6667;52.634;9.226;2022-07-10T18:16:20;18.40;99.90
13205;DHT22;6667;52.634;9.226;2022-07-10T18:18:50;18.20;99.90
13205;DHT22;6667;52.634;9.226;2022-07-10T18:21:18;18.20;99.90
13205;DHT22;6667;52.634;9.226;2022-07-10T18:23:45;18.30;99.90
13205;DHT22;6667;52.634;9.226;2022-07-10T18:26:12;18.20;99.90
13205;DHT22;6667;52.634;9.226;2022-07-10T18:28:40;18.30;99.90
13205;DHT22;6667;52.634;9.226;2022-07-10T18:31:09;18.40;99.90
13205;DHT22;6667;52.634;9.226;2022-07-10T18:33:38;18.20;99.90
13205;DHT22;6667;52.634;9.226;2022-07-10T18:36:24;18.20;99.90
13205;DHT22;6667;52.634;9.226;2022-07-10T18:38:51;18.30;99.90
13205;DHT22;6667;52.634;9.226;2022-07-10T18:41:19;18.20;99.90
13205;DHT22;6667;52.634;9.226;2022-07-10T18:43:46;18.20;99.90
13205;DHT22;6667;52.634;9.226;2022-07-10T18:46:13;18.20;99.90
13205;DHT22;6667;52.634;9.226;2022-07-10T18:48:40;18.10;99.90
13205;DHT22;6667;52.634;9.226;2022-07-10T18:51:07;18.10;99.90
13205;DHT22;6667;52.634;9.226;2022-07-10T18:53:36;18.10;99.90
13205;DHT22;6667;52.634;9.226;2022-07-10T18:56:04;18.00;99.90
13205;DHT22;6667;52.634;9.226;2022-07-10T18:58:32;18.00;99.90
13205;DHT22;6667;52.634;9.226;2022-07-10T19:00:59;18.10;99.90
13205;DHT22;6667;52.634;9.226;2022-07-10T19:03:27;18.00;99.90
13205;DHT22;6667;52.634;9.226;2022-07-10T19:05:54;18.00;99.90
13205;DHT22;6667;52.634;9.226;2022-07-10T19:08:21;17.90;99.90
13205;DHT22;6667;52.634;9.226;2022-07-10T19:10:50;17.80;99.90
13205;DHT22;6667;52.634;9.226;2022-07-10T19:13:17;17.80;99.90
13205;DHT22;6667;52.634;9.226;2022-07-10T19:15:46;17.70;99.90
13205;DHT22;6667;52.634;9.226;2022-07-10T19:18:13;17.60;99.90
13205;DHT22;6667;52.634;9.226;2022-07-10T19:20:40;17.60;99.90
13205;DHT22;6667;52.634;9.226;2022-07-10T19:23:07;17.70;99.90
13205;DHT22;6667;52.634;9.226;2022-07-10T19:25:35;17.50;99.90
13205;DHT22;6667;52.634;9.226;2022-07-10T19:28:04;17.50;99.90
13205;DHT22;6667;52.634;9.226;2022-07-10T19:30:32;17.40;99.90
13205;DHT22;6667;52.634;9.226;2022-07-10T19:33:00;17.40;99.90
13205;DHT22;6667;52.634;9.226;2022-07-10T19:35:27;17.30;99.90
13205;DHT22;6667;52.634;9.226;2022-07-10T19:37:55;17.20;99.90
13205;DHT22;6667;52.634;9.226;2022-07-10T19:40:23;17.20;1.00
13205;DHT22;6667;52.634;9.226;2022-07-10T19:42:50;17.20;1.00
13205;DHT22;6667;52.634;9.226;2022-07-10T19:45:19;17.10;1.00
13205;DHT22;6667;52.634;9.226;2022-07-10T19:47:48;17.00;1.00
13205;DHT22;6667;52.634;9.226;2022-07-10T19:50:18;17.00;1.00
13205;DHT22;6667;52.634;9.226;2022-07-10T19:52:45;17.00;1.00
13205;DHT22;6667;52.634;9.226;2022-07-10T19:55:12;17.10;1.00
13205;DHT22;6667;52.634;9.226;2022-07-10T19:57:39;17.00;1.00
13205;DHT22;6667;52.634;9.226;2022-07-10T20:00:09;17.00;1.00
13205;DHT22;6667;52.634;9.226;2022-07-10T20:02:38;17.00;1.00
13205;DHT22;6667;52.634;9.226;2022-07-10T20:05:07;16.90;1.00
13205;DHT22;6667;52.634;9.226;2022-07-10T20:07:34;17.00;1.00
13205;DHT22;6667;52.634;9.226;2022-07-10T20:10:02;16.90;1.00
13205;DHT22;6667;52.634;9.226;2022-07-10T20:12:29;16.90;1.00
13205;DHT22;6667;52.634;9.226;2022-07-10T20:14:57;16.80;1.00
13205;DHT22;6667;52.634;9.226;2022-07-10T20:17:26;16.80;1.00
13205;DHT22;6667;52.634;9.226;2022-07-10T20:19:56;16.70;1.00
13205;DHT22;6667;52.634;9.226;2022-07-10T20:22:23;16.80;1.00
13205;DHT22;6667;52.634;9.226;2022-07-10T20:24:51;16.80;1.00
13205;DHT22;6667;52.634;9.226;2022-07-10T20:27:19;16.70;1.00
13205;DHT22;6667;52.634;9.226;2022-07-10T20:29:46;16.70;1.00
13205;DHT22;6667;52.634;9.226;2022-07-10T20:32:13;16.70;1.00
13205;DHT22;6667;52.634;9.226;2022-07-10T20:34:41;16.70;1.00
13205;DHT22;6667;52.634;9.226;2022-07-10T20:37:10;16.50;1.00
13205;DHT22;6667;52.634;9.226;2022-07-10T20:39:54;16.50;1.00
13205;DHT22;6667;52.634;9.226;2022-07-10T20:42:23;16.50;1.00
13205;DHT22;6667;52.634;9.226;2022-07-10T20:44:53;16.40;1.00
13205;DHT22;6667;52.634;9.226;2022-07-10T20:47:21;16.30;1.00
13205;DHT22;6667;52.634;9.226;2022-07-10T20:49:48;16.40;34.50
13205;DHT22;6667;52.634;9.226;2022-07-10T20:52:17;16.20;99.90
13205;DHT22;6667;52.634;9.226;2022-07-10T20:54:44;16.10;1.00
13205;DHT22;6667;52.634;9.226;2022-07-10T20:57:12;15.90;1.00
13205;DHT22;6667;52.634;9.226;2022-07-10T20:59:39;15.90;1.00
13205;DHT22;6667;52.634;9.226;2022-07-10T21:02:06;15.90;1.00
13205;DHT22;6667;52.634;9.226;2022-07-10T21:04:32;15.90;1.00
13205;DHT22;6667;52.634;9.226;2022-07-10T21:06:59;16.00;1.00
13205;DHT22;6667;52.634;9.226;2022-07-10T21:09:27;16.10;1.00
13205;DHT22;6667;52.634;9.226;2022-07-10T21:11:53;16.20;1.00
